CheckWX is a tool to help pilots better visualize weather data.  It is not intended as a substitute for an official pre-flight weather briefing.

14:03:28 UTC

KEQA METAR
El Dorado / Captain Jack Thomas Memorial Airport
El Dorado, Kansas, USA
Current

28 mins ago

KEQA 201335Z AUTO 19017G22KT 10SM CLR 28/21 A2986 RMK AO2
Observed
Jul-20 @ 13:35 UTC
Wind
  • 190° at 17 KTS
  • Gusting to 22 KTS
Visibility
10 SM
Flight Rules
VFR
Cloud Levels
  • Clear skies
Temperature
28°C / 82°F
Dewpoint
21°C / 70°F
Heat Index
30°C / 86°F
Humidity
66%
Altimeter
29.86" Hg
Pressure
1011.22 hPa
Previous

48 mins ago

KEQA 201315Z AUTO 18016G22KT 10SM CLR 27/21 A2986 RMK AO2
Observed
Jul-20 @ 13:15 UTC
Wind
  • 180° at 16 KTS
  • Gusting to 22 KTS
Visibility
10 SM
Flight Rules
VFR
Cloud Levels
  • Clear skies
Temperature
27°C / 81°F
Dewpoint
21°C / 70°F
Heat Index
29°C / 85°F
Humidity
70%
Altimeter
29.86" Hg
Pressure
1011.22 hPa
Previous

1 hour ago

KEQA 201255Z AUTO 18016G21KT 10SM CLR 27/21 A2985 RMK AO2
Observed
Jul-20 @ 12:55 UTC
Wind
  • 180° at 16 KTS
  • Gusting to 21 KTS
Visibility
10 SM
Flight Rules
VFR
Cloud Levels
  • Clear skies
Temperature
27°C / 81°F
Dewpoint
21°C / 70°F
Heat Index
29°C / 85°F
Humidity
70%
Altimeter
29.85" Hg
Pressure
1010.82 hPa